createdAt,value
2022-11-17T00:01:20.503Z,56.35
2022-11-17T00:03:48.313Z,57.49
2022-11-17T00:06:15.362Z,57.82
2022-11-17T00:08:41.964Z,60.03
2022-11-17T00:11:08.722Z,60.76
2022-11-17T00:13:54.244Z,59.90
2022-11-17T00:16:21.552Z,59.99
2022-11-17T00:19:08.158Z,59.26
2022-11-17T00:21:34.839Z,59.28
2022-11-17T00:24:01.988Z,58.40
2022-11-17T00:26:33.498Z,58.34
2022-11-17T00:29:01.765Z,58.24
2022-11-17T00:31:48.254Z,57.97
2022-11-17T00:34:20.084Z,58.46
2022-11-17T00:36:47.852Z,58.49
2022-11-17T00:39:15.783Z,58.95
2022-11-17T00:41:42.494Z,58.97
2022-11-17T00:44:09.359Z,59.16
2022-11-17T00:46:37.437Z,60.10
2022-11-17T00:49:08.852Z,59.10
2022-11-17T00:51:35.944Z,59.52
2022-11-17T00:54:03.263Z,60.58
2022-11-17T00:56:30.002Z,61.67
2022-11-17T00:58:56.908Z,62.75
2022-11-17T01:01:23.610Z,63.61
2022-11-17T01:03:50.226Z,64.97
2022-11-17T01:06:19.176Z,65.37
2022-11-17T01:08:46.449Z,65.85
2022-11-17T01:11:18.208Z,65.52
2022-11-17T01:13:47.079Z,65.58
2022-11-17T01:16:16.804Z,65.47
2022-11-17T01:18:45.127Z,67.00
2022-11-17T01:21:13.003Z,67.92
2022-11-17T01:23:40.880Z,67.65
2022-11-17T01:26:09.759Z,67.69
2022-11-17T01:28:36.820Z,67.63
2022-11-17T01:31:06.225Z,67.28
2022-11-17T01:33:33.169Z,66.69
2022-11-17T01:36:01.768Z,67.10
2022-11-17T01:38:28.270Z,67.30
2022-11-17T01:41:06.809Z,67.24
2022-11-17T01:43:48.288Z,66.70
2022-11-17T01:46:29.429Z,66.78
2022-11-17T01:49:00.728Z,67.19
2022-11-17T01:51:28.143Z,66.88
2022-11-17T01:53:54.658Z,66.54
2022-11-17T01:56:25.130Z,65.89
2022-11-17T01:58:55.230Z,65.75
2022-11-17T02:01:21.851Z,66.12
2022-11-17T02:03:49.400Z,66.03
2022-11-17T02:06:20.849Z,65.46
2022-11-17T02:08:48.655Z,65.90
2022-11-17T02:11:17.639Z,66.14
2022-11-17T02:13:45.057Z,66.04
2022-11-17T02:16:15.787Z,65.42
2022-11-17T02:18:42.979Z,65.54
2022-11-17T02:21:37.484Z,65.92
2022-11-17T02:24:18.902Z,65.55
2022-11-17T02:27:10.218Z,66.93
2022-11-17T02:29:48.525Z,67.13
2022-11-17T02:32:19.002Z,66.78
2022-11-17T02:35:11.346Z,67.05
2022-11-17T02:37:48.173Z,66.92
2022-11-17T02:40:29.301Z,68.16
2022-11-17T02:43:17.340Z,69.50
2022-11-17T02:45:50.033Z,68.93
2022-11-17T02:48:19.824Z,69.03
2022-11-17T02:50:46.898Z,68.86
2022-11-17T02:53:13.718Z,68.93
2022-11-17T02:55:40.193Z,69.33
2022-11-17T02:58:11.998Z,68.66
2022-11-17T03:00:53.033Z,69.03
2022-11-17T03:03:31.164Z,70.21
2022-11-17T03:06:59.398Z,69.87
2022-11-17T03:09:38.453Z,69.26
2022-11-17T03:12:22.298Z,69.46
2022-11-17T03:15:19.720Z,69.75
2022-11-17T03:18:04.273Z,69.07
2022-11-17T03:20:40.984Z,69.05
2022-11-17T03:23:13.148Z,70.10
2022-11-17T03:25:44.249Z,71.31
2022-11-17T03:28:11.619Z,71.55
2022-11-17T03:30:41.193Z,72.36
2022-11-17T03:33:12.466Z,72.26
2022-11-17T03:35:46.315Z,73.31
2022-11-17T03:38:16.681Z,74.24
2022-11-17T03:40:46.783Z,74.12
2022-11-17T03:43:15.486Z,74.43
2022-11-17T03:45:45.632Z,74.00
2022-11-17T03:48:33.552Z,73.90
2022-11-17T03:51:09.252Z,74.23
2022-11-17T03:53:36.446Z,74.43
2022-11-17T03:56:09.331Z,73.56
2022-11-17T03:58:42.769Z,74.29
2022-11-17T04:01:09.740Z,74.16
2022-11-17T04:03:38.252Z,74.66
2022-11-17T04:06:05.112Z,74.17
2022-11-17T04:08:31.857Z,74.63
2022-11-17T04:11:17.022Z,74.85
2022-11-17T04:14:01.979Z,74.96
2022-11-17T04:16:28.416Z,73.80
2022-11-17T04:18:58.857Z,75.39
2022-11-17T04:21:25.727Z,74.61
2022-11-17T04:23:52.193Z,74.24
2022-11-17T04:26:37.367Z,74.45
2022-11-17T04:29:04.153Z,75.00
2022-11-17T04:31:31.444Z,74.17
2022-11-17T04:34:03.188Z,75.08
2022-11-17T04:36:32.405Z,74.88
2022-11-17T04:38:59.544Z,75.28
2022-11-17T04:41:46.171Z,75.48
2022-11-17T04:44:14.229Z,75.04
2022-11-17T04:46:41.182Z,75.23
2022-11-17T04:49:08.544Z,74.75
2022-11-17T04:51:36.237Z,74.34
2022-11-17T04:54:03.401Z,73.96
2022-11-17T04:56:30.021Z,74.36
2022-11-17T04:58:56.747Z,74.53
2022-11-17T05:01:25.118Z,73.78
2022-11-17T05:03:53.557Z,74.42
2022-11-17T05:06:25.143Z,74.57
2022-11-17T05:08:55.471Z,73.45
2022-11-17T05:11:42.185Z,73.81
2022-11-17T05:14:08.716Z,74.58
2022-11-17T05:16:53.831Z,74.36
2022-11-17T05:19:22.904Z,74.06
2022-11-17T05:21:49.731Z,75.29
2022-11-17T05:24:16.702Z,74.79
2022-11-17T05:26:44.581Z,74.13
2022-11-17T05:29:12.391Z,74.04
2022-11-17T05:31:39.217Z,74.73
2022-11-17T05:34:07.574Z,73.96
2022-11-17T05:36:34.489Z,74.14
2022-11-17T05:39:01.217Z,73.92
2022-11-17T05:41:28.812Z,73.39
2022-11-17T05:43:56.243Z,72.90
2022-11-17T05:46:23.291Z,72.81
2022-11-17T05:48:50.461Z,72.73
2022-11-17T05:51:21.494Z,71.98
2022-11-17T05:53:48.917Z,72.79
2022-11-17T05:56:40.753Z,72.45
2022-11-17T05:59:10.202Z,72.18
2022-11-17T06:01:41.041Z,72.34
2022-11-17T06:04:08.283Z,72.18
2022-11-17T06:06:36.354Z,71.69
2022-11-17T06:09:03.589Z,71.30
2022-11-17T06:11:30.286Z,71.04
2022-11-17T06:13:56.751Z,71.38
2022-11-17T06:16:24.767Z,71.16
2022-11-17T06:18:56.024Z,70.46
2022-11-17T06:21:22.642Z,70.78
2022-11-17T06:23:49.497Z,69.84
2022-11-17T06:26:16.301Z,69.54
2022-11-17T06:28:45.887Z,69.56
2022-11-17T06:31:12.406Z,68.72
2022-11-17T06:33:39.069Z,68.93
2022-11-17T06:36:07.582Z,68.28
2022-11-17T06:38:35.793Z,68.66
2022-11-17T06:41:07.532Z,69.53
2022-11-17T06:43:38.346Z,69.05
2022-11-17T06:46:05.586Z,70.73
2022-11-17T06:48:35.532Z,71.59
2022-11-17T06:51:04.595Z,72.21
2022-11-17T06:53:33.120Z,73.63
2022-11-17T06:56:09.698Z,74.80
2022-11-17T06:58:38.292Z,75.59
2022-11-17T07:01:10.366Z,74.72
2022-11-17T07:03:38.492Z,74.71
2022-11-17T07:06:06.768Z,75.58
2022-11-17T07:08:34.339Z,75.19
2022-11-17T07:11:09.381Z,75.20
2022-11-17T07:13:36.675Z,74.57
2022-11-17T07:16:06.954Z,74.40
2022-11-17T07:18:34.193Z,73.88
2022-11-17T07:21:06.365Z,74.57
2022-11-17T07:23:34.656Z,75.61
2022-11-17T07:26:01.609Z,74.36
2022-11-17T07:28:28.525Z,75.60
2022-11-17T07:30:55.595Z,75.63
2022-11-17T07:33:22.755Z,75.87
2022-11-17T07:35:49.342Z,75.94
2022-11-17T07:38:15.904Z,75.46
2022-11-17T07:40:42.414Z,76.38
2022-11-17T07:43:08.989Z,74.44
2022-11-17T07:45:36.190Z,75.81
2022-11-17T07:48:04.160Z,74.08
2022-11-17T07:50:31.111Z,74.84
2022-11-17T07:52:57.742Z,75.99
2022-11-17T07:55:25.561Z,74.78
2022-11-17T07:57:56.727Z,74.93
2022-11-17T08:00:23.370Z,75.79
2022-11-17T08:02:50.389Z,75.23
2022-11-17T08:05:17.533Z,75.21
2022-11-17T08:07:45.299Z,75.37
2022-11-17T08:10:13.521Z,76.70
2022-11-17T08:12:40.014Z,75.78
2022-11-17T08:15:07.400Z,76.58
2022-11-17T08:17:34.018Z,76.66
2022-11-17T08:20:00.807Z,77.23
2022-11-17T08:22:27.286Z,77.10
2022-11-17T08:24:53.788Z,75.89
2022-11-17T08:27:20.276Z,74.89
2022-11-17T08:29:46.804Z,74.10
2022-11-17T08:32:13.315Z,73.80
2022-11-17T08:34:39.823Z,74.03
2022-11-17T08:37:06.834Z,73.31
2022-11-17T08:39:33.368Z,73.71
2022-11-17T08:41:59.890Z,74.29
2022-11-17T08:44:26.399Z,73.66
2022-11-17T08:46:52.882Z,72.55
2022-11-17T08:49:19.586Z,72.61
2022-11-17T08:51:46.067Z,71.31
2022-11-17T08:54:12.722Z,73.21
2022-11-17T08:56:39.349Z,72.41
2022-11-17T08:59:06.046Z,72.01
2022-11-17T09:01:32.627Z,72.24
2022-11-17T09:03:59.354Z,71.74
2022-11-17T09:06:25.871Z,71.14
2022-11-17T09:08:55.623Z,72.68
2022-11-17T09:11:22.413Z,72.12
2022-11-17T09:13:48.949Z,72.41
2022-11-17T09:16:16.477Z,72.38
2022-11-17T09:18:44.026Z,72.39
2022-11-17T09:21:13.658Z,72.02
2022-11-17T09:23:40.330Z,72.50
2022-11-17T09:26:09.945Z,71.47
2022-11-17T09:28:37.033Z,71.93
2022-11-17T09:31:14.728Z,71.54
2022-11-17T09:33:42.578Z,71.94
2022-11-17T09:36:10.191Z,70.85
2022-11-17T09:38:37.882Z,71.89
2022-11-17T09:41:26.511Z,71.96
2022-11-17T09:44:03.145Z,72.56
2022-11-17T09:46:36.344Z,71.50
2022-11-17T09:49:35.098Z,72.94
2022-11-17T09:52:41.057Z,74.03
2022-11-17T09:55:33.886Z,72.22
2022-11-17T09:58:19.884Z,72.46
2022-11-17T10:00:48.835Z,72.36
2022-11-17T10:03:20.461Z,71.26
2022-11-17T10:05:47.726Z,71.79
2022-11-17T10:08:47.258Z,69.96
2022-11-17T10:11:31.582Z,67.40
2022-11-17T10:14:15.880Z,67.41
2022-11-17T10:16:51.376Z,65.18
2022-11-17T10:19:21.977Z,65.08
2022-11-17T10:22:21.054Z,66.96
2022-11-17T10:24:54.929Z,65.15
2022-11-17T10:27:35.065Z,63.63
2022-11-17T10:30:07.060Z,59.65
2022-11-17T10:32:40.667Z,59.65
2022-11-17T10:35:27.239Z,59.20
2022-11-17T10:38:04.196Z,60.75
2022-11-17T10:40:32.785Z,63.11
2022-11-17T10:43:03.947Z,63.34
2022-11-17T10:45:30.620Z,63.58
2022-11-17T10:48:16.388Z,63.71
2022-11-17T10:51:15.197Z,63.52
2022-11-17T10:53:46.803Z,64.38
2022-11-17T10:56:18.408Z,62.17
2022-11-17T10:59:12.685Z,63.98
2022-11-17T11:01:41.982Z,63.41
2022-11-17T11:04:36.832Z,64.28
2022-11-17T11:07:07.768Z,63.62
2022-11-17T11:09:37.471Z,61.23
2022-11-17T11:12:05.512Z,60.41
2022-11-17T11:14:41.305Z,58.62
2022-11-17T11:17:13.006Z,57.08
2022-11-17T11:19:41.447Z,56.68
2022-11-17T11:22:19.736Z,57.98
2022-11-17T11:25:15.469Z,54.66
2022-11-17T11:28:05.232Z,53.33
2022-11-17T11:30:38.050Z,53.10
2022-11-17T11:33:34.312Z,57.45
2022-11-17T11:36:25.504Z,55.06
2022-11-17T11:39:22.452Z,57.02
2022-11-17T11:42:07.732Z,57.28
2022-11-17T11:44:56.553Z,55.91
2022-11-17T11:47:40.104Z,55.21
2022-11-17T11:50:18.423Z,57.08
2022-11-17T11:52:48.314Z,57.18
2022-11-17T11:55:21.896Z,53.19
2022-11-17T11:57:54.775Z,49.81
2022-11-17T12:00:21.496Z,51.52
2022-11-17T12:03:15.631Z,52.35
2022-11-17T12:06:28.827Z,54.55
2022-11-17T12:09:25.331Z,57.02
2022-11-17T12:12:01.440Z,55.16
2022-11-17T12:14:33.597Z,54.91
2022-11-17T12:17:26.352Z,56.18
2022-11-17T12:19:54.820Z,57.11
2022-11-17T12:22:42.259Z,57.51
2022-11-17T12:25:18.516Z,57.15
2022-11-17T12:27:55.100Z,54.19
2022-11-17T12:30:30.669Z,53.45
2022-11-17T12:32:58.534Z,54.30
2022-11-17T12:35:31.794Z,53.74
2022-11-17T12:38:16.682Z,54.92
2022-11-17T12:40:49.716Z,53.90
2022-11-17T12:43:16.310Z,53.67
2022-11-17T12:45:54.632Z,55.17
2022-11-17T12:48:38.350Z,55.54
2022-11-17T12:51:15.954Z,56.04
2022-11-17T12:54:10.953Z,55.67
2022-11-17T12:57:09.593Z,56.52
2022-11-17T13:00:00.052Z,55.13
2022-11-17T13:02:46.622Z,54.19
2022-11-17T13:05:19.621Z,53.95
2022-11-17T13:07:46.165Z,52.61
2022-11-17T13:10:29.421Z,52.79
2022-11-17T13:13:11.072Z,52.97
2022-11-17T13:15:37.915Z,51.19
2022-11-17T13:18:10.724Z,52.26
2022-11-17T13:20:38.713Z,50.79
2022-11-17T13:23:20.078Z,51.64
2022-11-17T13:25:46.588Z,53.16
2022-11-17T13:28:30.679Z,53.33
2022-11-17T13:30:58.696Z,52.86
2022-11-17T13:33:26.036Z,52.72
2022-11-17T13:36:08.229Z,54.04
2022-11-17T13:38:35.267Z,53.74
2022-11-17T13:41:02.759Z,53.34
2022-11-17T13:43:38.076Z,53.68
2022-11-17T13:46:06.274Z,53.68
2022-11-17T13:48:38.210Z,52.63
2022-11-17T13:51:22.995Z,52.31
2022-11-17T13:54:06.891Z,52.77
2022-11-17T13:56:41.304Z,52.81
2022-11-17T13:59:35.647Z,54.03
2022-11-17T14:02:24.287Z,54.07
2022-11-17T14:05:09.427Z,53.70
2022-11-17T14:07:37.919Z,54.73
2022-11-17T14:10:14.817Z,54.57
2022-11-17T14:12:41.631Z,55.35
2022-11-17T14:15:15.250Z,54.62
2022-11-17T14:17:47.866Z,53.69
2022-11-17T14:20:23.654Z,54.23
2022-11-17T14:23:01.384Z,54.39
2022-11-17T14:25:28.967Z,52.80
2022-11-17T14:27:56.081Z,53.20
2022-11-17T14:30:22.936Z,52.29
2022-11-17T14:32:49.471Z,52.65
2022-11-17T14:37:47.521Z,52.05
2022-11-17T14:40:15.289Z,51.15
2022-11-17T14:42:41.963Z,51.24
2022-11-17T14:45:12.256Z,51.29
2022-11-17T14:47:39.498Z,51.43
2022-11-17T14:50:07.230Z,51.75
2022-11-17T14:52:33.689Z,52.21
2022-11-17T14:55:00.953Z,51.63
2022-11-17T14:57:27.512Z,51.15
2022-11-17T14:59:54.065Z,51.36
2022-11-17T15:02:20.494Z,51.27
2022-11-17T15:04:51.534Z,51.16
2022-11-17T15:07:18.361Z,50.83
2022-11-17T15:09:44.960Z,50.46
2022-11-17T15:12:11.502Z,50.42
2022-11-17T15:14:37.981Z,50.44
2022-11-17T15:17:05.744Z,51.23
2022-11-17T15:19:36.443Z,51.22
2022-11-17T15:22:02.884Z,50.79
2022-11-17T15:24:30.488Z,50.10
2022-11-17T15:26:57.027Z,50.59
2022-11-17T15:29:23.559Z,50.08
2022-11-17T15:31:50.113Z,51.90
2022-11-17T15:34:20.151Z,52.26
2022-11-17T15:36:47.564Z,51.21
2022-11-17T15:39:14.439Z,51.20
2022-11-17T15:41:41.319Z,50.59
2022-11-17T15:44:07.992Z,51.55
2022-11-17T15:46:34.790Z,51.50
2022-11-17T15:49:01.426Z,51.50
2022-11-17T15:51:28.626Z,52.28
2022-11-17T15:53:59.890Z,51.64
2022-11-17T15:56:28.384Z,51.39
2022-11-17T15:59:03.164Z,51.94
2022-11-17T16:01:31.331Z,51.78
2022-11-17T16:04:00.843Z,52.56
2022-11-17T16:06:28.389Z,54.22
2022-11-17T16:08:55.411Z,53.96
2022-11-17T16:11:22.273Z,54.08
2022-11-17T16:13:52.097Z,53.51
2022-11-17T16:16:18.691Z,53.50
2022-11-17T16:18:45.210Z,53.61
2022-11-17T16:21:12.873Z,52.92
2022-11-17T16:23:40.860Z,52.96
2022-11-17T16:26:08.750Z,52.27
2022-11-17T16:28:35.313Z,51.86
2022-11-17T16:31:12.410Z,52.33
2022-11-17T16:33:38.926Z,51.72
2022-11-17T16:36:06.407Z,51.44
2022-11-17T16:38:32.897Z,52.36
2022-11-17T16:41:02.441Z,51.86
2022-11-17T16:43:29.052Z,52.56
2022-11-17T16:45:56.681Z,52.73
2022-11-17T16:48:23.295Z,54.72
2022-11-17T16:50:49.952Z,53.88
2022-11-17T16:53:16.565Z,53.65
2022-11-17T16:55:43.104Z,53.38
2022-11-17T16:58:10.214Z,53.52
2022-11-17T17:00:36.781Z,53.45
2022-11-17T17:03:03.925Z,54.17
2022-11-17T17:05:30.534Z,53.29
2022-11-17T17:07:57.105Z,53.72
2022-11-17T17:10:24.382Z,54.54
2022-11-17T17:12:51.240Z,54.06
2022-11-17T17:15:17.890Z,54.92
2022-11-17T17:17:44.379Z,53.80
2022-11-17T17:20:11.281Z,55.10
2022-11-17T17:22:37.748Z,55.47
2022-11-17T17:25:04.698Z,55.75
2022-11-17T17:27:31.359Z,55.70
2022-11-17T17:29:57.909Z,56.98
2022-11-17T17:32:24.408Z,56.29
2022-11-17T17:34:51.160Z,57.59
2022-11-17T17:37:18.347Z,57.04
2022-11-17T17:39:44.811Z,57.19
2022-11-17T17:42:15.018Z,57.29
2022-11-17T17:44:41.867Z,56.93
2022-11-17T17:47:08.440Z,57.66
2022-11-17T17:49:34.965Z,58.03
2022-11-17T17:52:01.489Z,57.41
2022-11-17T17:54:28.169Z,57.30
2022-11-17T17:56:59.893Z,57.96
2022-11-17T17:59:26.419Z,57.65
2022-11-17T18:01:53.330Z,57.51
2022-11-17T18:04:19.953Z,56.56
2022-11-17T18:06:47.862Z,57.12
2022-11-17T18:09:18.790Z,57.11
2022-11-17T18:11:48.016Z,57.55
2022-11-17T18:14:14.745Z,56.50
2022-11-17T18:16:41.514Z,56.73
2022-11-17T18:19:09.119Z,57.35
2022-11-17T18:21:36.254Z,57.39
2022-11-17T18:24:03.571Z,56.12
2022-11-17T18:26:32.887Z,55.60
2022-11-17T18:29:07.483Z,55.41
2022-11-17T18:31:35.339Z,55.04
2022-11-17T18:34:13.333Z,55.37
2022-11-17T18:36:40.059Z,54.64
2022-11-17T18:39:06.578Z,54.86
2022-11-17T18:41:34.121Z,54.58
2022-11-17T18:44:01.407Z,54.90
2022-11-17T18:46:30.043Z,55.23
2022-11-17T18:48:57.250Z,56.31
2022-11-17T18:51:26.572Z,56.55
2022-11-17T18:53:54.284Z,56.79
2022-11-17T18:56:23.422Z,56.57
2022-11-17T18:58:50.358Z,57.88
2022-11-17T19:01:25.047Z,56.74
2022-11-17T19:03:53.532Z,57.93
2022-11-17T19:06:21.928Z,57.06
2022-11-17T19:08:48.955Z,59.86
2022-11-17T19:11:17.247Z,59.40
2022-11-17T19:13:44.108Z,59.83
2022-11-17T19:16:19.729Z,59.33
2022-11-17T19:18:47.992Z,59.21
2022-11-17T19:21:16.426Z,61.11
2022-11-17T19:23:49.536Z,60.44
2022-11-17T19:26:19.207Z,61.29
2022-11-17T19:28:45.643Z,60.94
2022-11-17T19:31:15.423Z,61.84
2022-11-17T19:33:42.034Z,60.91
2022-11-17T19:36:11.463Z,59.83
2022-11-17T19:38:38.901Z,61.08
2022-11-17T19:41:11.222Z,62.70
2022-11-17T19:43:43.393Z,61.40
2022-11-17T19:46:13.625Z,61.59
2022-11-17T19:48:40.827Z,60.82
2022-11-17T19:51:20.424Z,60.68
2022-11-17T19:53:52.288Z,60.35
2022-11-17T19:56:19.404Z,60.30
2022-11-17T19:58:46.644Z,60.31
2022-11-17T20:01:24.647Z,60.22
2022-11-17T20:03:51.229Z,59.89
2022-11-17T20:06:20.910Z,59.86
2022-11-17T20:08:48.305Z,58.83
2022-11-17T20:11:20.218Z,58.55
2022-11-17T20:13:47.198Z,58.54
2022-11-17T20:16:16.047Z,58.07
2022-11-17T20:18:43.645Z,57.77
2022-11-17T20:21:11.237Z,59.05
2022-11-17T20:23:38.665Z,58.21
2022-11-17T20:26:15.685Z,58.49
2022-11-17T20:28:42.368Z,58.95
2022-11-17T20:31:14.252Z,58.75
2022-11-17T20:33:42.220Z,59.49
2022-11-17T20:36:11.272Z,59.43
2022-11-17T20:38:38.402Z,58.39
2022-11-17T20:41:05.237Z,58.55
2022-11-17T20:43:32.276Z,59.64
2022-11-17T20:45:59.319Z,59.82
2022-11-17T20:48:27.692Z,59.87
2022-11-17T20:50:58.098Z,59.56
2022-11-17T20:53:24.827Z,58.79
2022-11-17T20:55:51.722Z,59.96
2022-11-17T20:58:18.278Z,59.22
2022-11-17T21:00:44.937Z,60.12
2022-11-17T21:03:11.552Z,60.31
2022-11-17T21:05:38.088Z,59.38
2022-11-17T21:08:04.871Z,60.14
2022-11-17T21:10:31.392Z,58.97
2022-11-17T21:12:58.691Z,58.27
2022-11-17T21:15:25.181Z,58.22
2022-11-17T21:18:10.542Z,58.83
2022-11-17T21:20:37.109Z,58.16
2022-11-17T21:23:03.625Z,57.49
2022-11-17T21:25:30.065Z,57.67
2022-11-17T21:27:56.674Z,58.04
2022-11-17T21:30:23.157Z,57.38
2022-11-17T21:32:49.679Z,58.40
2022-11-17T21:35:16.255Z,57.18
2022-11-17T21:37:42.733Z,57.66
2022-11-17T21:40:09.550Z,56.71
2022-11-17T21:42:36.253Z,56.88
2022-11-17T21:45:02.798Z,56.37
2022-11-17T21:47:29.247Z,56.33
2022-11-17T21:49:55.814Z,56.96
2022-11-17T21:52:22.357Z,56.70
2022-11-17T21:54:48.809Z,56.40
2022-11-17T21:57:15.296Z,56.66
2022-11-17T21:59:41.765Z,58.08
2022-11-17T22:02:09.759Z,58.12
2022-11-17T22:04:36.223Z,58.89
2022-11-17T22:07:03.234Z,57.20
2022-11-17T22:09:32.624Z,56.97
2022-11-17T22:11:59.110Z,57.11
2022-11-17T22:14:25.760Z,56.86
2022-11-17T22:16:53.185Z,56.73
2022-11-17T22:19:21.853Z,56.83
2022-11-17T22:21:50.926Z,56.72
2022-11-17T22:24:18.169Z,56.99
2022-11-17T22:26:45.089Z,56.69
2022-11-17T22:29:14.547Z,57.24
2022-11-17T22:31:41.544Z,57.01
2022-11-17T22:34:08.387Z,57.03
2022-11-17T22:36:34.945Z,57.18
2022-11-17T22:39:01.428Z,56.92
2022-11-17T22:41:27.916Z,57.50
2022-11-17T22:43:56.070Z,57.09
2022-11-17T22:46:24.949Z,57.30
2022-11-17T22:48:52.031Z,57.78
2022-11-17T22:51:37.665Z,57.53
2022-11-17T22:54:05.701Z,58.44
2022-11-17T22:56:32.664Z,57.81
2022-11-17T22:59:00.007Z,57.88
2022-11-17T23:01:26.749Z,57.71
2022-11-17T23:03:53.281Z,57.75
2022-11-17T23:06:22.510Z,58.00
2022-11-17T23:08:49.002Z,58.20
2022-11-17T23:11:35.933Z,57.81
2022-11-17T23:14:02.166Z,57.50
2022-11-17T23:16:28.656Z,57.61
2022-11-17T23:18:55.768Z,57.19
2022-11-17T23:21:22.831Z,57.26
2022-11-17T23:23:49.543Z,56.65
2022-11-17T23:26:16.137Z,56.96
2022-11-17T23:28:43.466Z,56.88
2022-11-17T23:31:12.581Z,56.94
2022-11-17T23:33:41.734Z,57.69
2022-11-17T23:36:19.934Z,57.45
2022-11-17T23:38:47.257Z,57.11
2022-11-17T23:41:15.719Z,57.11
2022-11-17T23:43:42.619Z,57.31
2022-11-17T23:46:14.570Z,57.51
2022-11-17T23:48:41.399Z,57.24
2022-11-17T23:51:09.693Z,57.96
2022-11-17T23:53:36.373Z,58.36
2022-11-17T23:56:04.248Z,59.78
2022-11-17T23:58:31.333Z,58.92
